TAF Germany/Deutschland - 23 Oct 2017 - 0947 UTC - RocketRoute WX - rrwx.com
EDDB AMD 230932Z 2309/2406 24006KT 9999 BKN015 BECMG 2309/2311 BKN012 TEMPO 2309/2315 2000 -RADZ BKN004 BECMG 2315/2317 15004KT BKN015 BECMG 2400/2403 3500 BR BKN004 EDDW AMD 230924Z 2309/2406 22012KT 9999 BKN015 TEMPO 2309/2311 25015G25KT 4000 -RADZ BKN007 BECMG 2311/2314 29008KT BECMG 2317/2320 25003KT 3500 BR TEMPO 2317/2406 1200 MIFG BKN007 BECMG 2322/2401 17005KT EDDC 230500Z 2306/2406 27007KT 9999 BKN030 PROB40 TEMPO 2306/2316 BKN010 BECMG 2315/2317 21005KT TEMPO 2322/2406 3500 -RADZ BKN008 EDDL 230500Z 2306/2412 24011KT 9999 BKN030 PROB30 TEMPO 2308/2313 27015G25KT BECMG 2317/2320 20006KT BECMG 2321/2324 BKN012 TEMPO 2400/2403 4500 -DZRA BKN008 BECMG 2403/2406 BKN007 BECMG 2409/2412 BKN012 EDFH AMD 230602Z 2306/2406 25010KT 9999 BKN020 TEMPO 2306/2310 BKN004 PROB30 TEMPO 2309/2314 27015G25KT BECMG 2318/2321 BKN010 TEMPO 2319/2406 2000 -DZ BR BKN004 EDDF 230500Z 2306/2412 21007KT 9999 SCT040 BECMG 2306/2308 23012KT TEMPO 2306/2315 BKN040 BECMG 2320/2322 21005KT BKN020 TEMPO 2404/2412 BKN010 BECMG 2409/2411 21010KT EDDH 230500Z 2306/2412 20007KT 9999 BKN012 TEMPO 2306/2317 4000 -RADZ BKN007 BECMG 2309/2312 14007KT BECMG 2312/2315 VRB03KT PROB30 TEMPO 2312/2317 SCT015 BECMG 2317/2320 4000 MIFG BKN007 TEMPO 2322/2406 1200 BCFG BKN003 BECMG 2401/2404 15005KT PROB30 TEMPO 2401/2406 0500 FG BKN001 BECMG 2406/2409 18010KT 8000 BECMG 2409/2412 BKN012 EDDV 230500Z 2306/2406 24010KT 9999 BKN012 TEMPO 2306/2316 4000 -RADZ BKN007 BECMG 2316/2319 BKN020 PROB30 TEMPO 2320/2406 4000 BR BKN007 EDAH 230800Z 2309/2318 23006KT 9999 BKN030 BECMG 2311/2314 VRB02KT EDSB 230500Z 2306/2406 22010KT 9999 BKN030 EDVK 230800Z 2309/2318 25010KT 9999 BKN020 EDDK 230500Z 2306/2412 25010KT 9999 BKN030 BECMG 2316/2319 20004KT BECMG 2322/2401 14005KT TEMPO 2323/2409 BKN012 PROB30 TEMPO 2403/2406 BKN008 ETNL 230733Z 2308/2317 16005KT 8000 NSW BKN010 TEMPO 2308/2317 15010KT 3000 RA BKN003 BKN020 BY ETGL EDDP 230500Z 2306/2406 24011KT 9999 BKN030 PROB30 TEMPO 2308/2312 4500 -RADZ BKN013 BECMG 2315/2317 24006KT TEMPO 2320/2405 4500 -RADZ BKN013 EDHL 230800Z 2309/2318 20005KT 9999 BKN012 BECMG 2309/2312 14005KT TEMPO 2309/2315 4000 RADZ BKN007 PROB40 TEMPO 2309/2313 2000 DZ BKN003 BECMG 2312/2315 VRB03KT TEMPO 2315/2318 3000 BR BKN007 EDDM 230500Z 2306/2412 28010KT 9999 BKN025 TEMPO 2306/2308 BKN012 TEMPO 2310/2313 29015G25KT SHRA BKN020TCU BECMG 2318/2320 26005KT BECMG 2402/2404 BKN012 BECMG 2407/2409 BKN020 EDDG 230500Z 2306/2406 23011KT 9999 BKN025 PROB30 TEMPO 2308/2314 27015G25KT BECMG 2315/2318 25006KT BECMG 2322/2324 19004KT BECMG 2322/2401 BKN011 TEMPO 2401/2406 BKN004 EDDN 230500Z 2306/2406 28010KT 9999 BKN045 TEMPO 2306/2308 BKN012 TEMPO 2308/2310 RA BKN012 BECMG 2316/2318 24005KT BECMG 2404/2406 BKN010 EDLP 230500Z 2306/2406 23012KT 9999 BKN013 BECMG 2306/2309 BKN030 TEMPO 2307/2313 27015G25KT BECMG 2315/2318 27007KT BECMG 2323/2402 20008KT BECMG 2401/2404 BKN012 EDDR 230500Z 2306/2406 24007KT 9999 BKN010 TEMPO 2306/2308 BKN008 BECMG 2308/2311 25012KT BKN015 BECMG 2319/2322 22007KT BKN010 TEMPO 2320/2406 2000 -DZ BR BKN004 EDDS 230500Z 2306/2406 23004KT 9999 BKN040 BECMG 2309/2311 26010KT BECMG 2317/2319 23004KT EDXW 230800Z 2309/2318 06010KT 4000 BR BKN007 TEMPO 2309/2311 2000 -DZ BKN002 BECMG 2311/2313 05005KT 6000 BKN012 TEMPO 2313/2318 BKN020 BECMG 2316/2318 11005KT 4000 BR EDDT AMD 230841Z 2308/2406 26007KT 9999 BKN010 TEMPO 2308/2315 4000 -RADZ BKN008 BECMG 2315/2317 VRB02KT BKN015 BECMG 2400/2403 3500 BR BKN004

RocketRoute WX - rrwx.com weather for pilots